Página principal
METAR-TAF:

METAR-TAF

Aeroportos :

Yap, Micronésia

latitude: 09-29N, longitude: 138-05E, altura: 28 m

Observação actual do tempo

O boletim foi feito há 55 minutos, às 14:55 UTC
Vento 9 kt de oes-sudoeste
Temperatura 29°C
Humidade 79%
Pressão 1008 hPa
Visibilidade: 19.3 km
Nuvens dispersasa uma altura de 1800 ft
Nuvens dispersasa uma altura de 13000 ft
Encobertoa uma altura de 30000 ft

METAR: PTYA 231455Z 24009KT 12SM SCT018 SCT130 OVC300 29/25 A2978 RMK MDT CU ALQDS SLP084 8/277 T02860249 403100267 57010

Hora: 01:50 (15:50 UTC)

Previsão

O boletim foi feito há 4 horas e 30 minutos, às 11:20 UTC
Previsão válida de 23 às 12 UTC a 24 às 12 UTC
Vento 7 kt de sudoeste
Visibilidade: 10 km
Nuvens dispersasa uma altura de 1800 ft
Nuvens fragmentadasa uma altura de 13000 ft
Encobertoa uma altura de 30000 ft
aguaceiros nas vizinhanças

TAF: PTYA 231120Z 2312/2412 23007KT P6SM VCSH SCT018 BKN130 OVC300

Observações e previsões do tempo de mais de 4000 aeroportos (mensagens METAR e TAF).

As estações disponíveis são os pontos amarelos e vermelhos sobre o mapa.

Mova o rato sobre o mapa para ver o nome da estação.

Depois clique no ponto para visualizar as observações e previsões meteorológicas.

Para alterar o mapa : clique nos botões verdes com uma cruz preta para aumentar o zoom; no botão verde com uma pitada de zoom; ou nas setas verdes para mapas adjacentes.


METAR-TAF: